Terminal Aerodrome Forecast
Issued by NWS Indianapolis, IN

Home | Current Version | Previous Version | Text Only | Print | Product List | Glossary On
Versions: 1 2 3 4 5 6 7 8 9 10 11 12 13 14 15 16 17 18 19 20 21 22 23 24 25 26
000
FTUS43 KIND 241721
TAFIND
TAF
KIND 241721Z 2418/2524 32006KT 5SM SHRA BR VCTS OVC035CB
     FM250400 33009KT 6SM SHRA OVC015
     FM250600 32009KT 5SM -SHRA BR OVC010
     FM251000 31010KT 6SM BR OVC008
     FM252000 30013KT P6SM BKN035=

USA.gov is the U.S. government's official web portal to all federal, state and local government web resources and services.